DNKN/KAN METAR and TAF weather

Enter ICAO airport designator
Station Type Date Time Source
DNKN METAR 2018/07/21 04:00 UTC NOAA

DNKN 210400Z 20005KT CAVOK 23/21 Q1015 NOSIG


Station Type Date Time Source
DNKN Decoded METAR 2018/07/21 04:00 UTC NOAA

Kano, Nigeria (DNKN) 12-03N 008-32E 481M
Jul 21, 2018 - 12:00 AM EDT / 2018.07.21 0400 UTC
Wind: from the SSW (200 degrees) at 6 MPH (5 KT):0
Visibility: greater than 7 mile(s):0
Temperature: 73 F (23 C)
Dew Point: 69 F (21 C)
Relative Humidity: 88%
Pressure (altimeter): 29.97 in. Hg (1015 hPa)
ob: DNKN 210400Z 20005KT CAVOK 23/21 Q1015 NOSIG
cycle: 4

Station Type Date Time Source
DNKN TAF 2018/07/20 18:22 UTC NOAA

TAF DNKN 201550Z 2018/2124 22010KT 9999 TS FEW012 FEW020CB
TEMPO 2022/2103 09015KT 5000 TSRA BKN012 FEW019CB
BECMG 2103/2105 CAVOK


Example: see airport list